LICA/SUF METAR and TAF weather

Enter ICAO airport designator
Station Type Date Time Source
LICA METAR 2020/07/10 00:50 UTC NOAA

LICA 100050Z AUTO 08004KT 7000 FEW021/// 20/20 Q1016


Station Type Date Time Source
LICA Decoded METAR 2020/07/10 00:50 UTC NOAA

Lamezia Terme, Italy (LICA) 38-54N 016-15E
Jul 09, 2020 - 08:50 PM EDT / 2020.07.10 0050 UTC
Wind: from the E (080 degrees) at 5 MPH (4 KT):0
Visibility: 4 mile(s):0
Sky conditions: mostly clear
Temperature: 68 F (20 C)
Dew Point: 68 F (20 C)
Relative Humidity: 100%
Pressure (altimeter): 30.00 in. Hg (1016 hPa)
ob: LICA 100050Z AUTO 08004KT 7000 FEW021/// 20/20 Q1016
cycle: 1

Station Type Date Time Source
LICA TAF 2020/07/09 18:21 UTC NOAA

TAF LICA 091700Z 0918/1018 VRB05KT 9999 SCT020
BECMG 1009/1011 27012KT
BECMG 1016/1018 VRB05KT

Example: see airport list